Time;durP1;ratioP1;P1;durP2;ratioP2;P2;SDS_P1;SDS_P2;PMS_P1;PMS_P2;Temp;Humidity;BMP_temperature;BMP_pressure;BME280_temperature;BME280_humidity;BME280_pressure;Samples;Min_cycle;Max_cycle;Signal;HPM_P1;HPM_P2
2022/06/01 00:01:46;;;;;;;1.48;1.27;;;18.20;54.50;;;;;;5125315;27;20480;-73
2022/06/01 00:04:13;;;;;;;1.85;1.27;;;18.20;54.60;;;;;;5101274;28;20056;-74
2022/06/01 00:06:40;;;;;;;1.42;1.30;;;18.20;54.50;;;;;;5089994;28;20058;-73
2022/06/01 00:09:08;;;;;;;1.38;1.20;;;18.00;59.70;;;;;;5091279;28;20402;-73
2022/06/01 00:11:34;;;;;;;1.48;1.25;;;18.70;60.80;;;;;;5089692;28;20062;-73
2022/06/01 00:14:01;;;;;;;2.05;1.30;;;19.00;59.50;;;;;;5105386;28;20480;-73
2022/06/01 00:16:28;;;;;;;1.45;1.20;;;18.20;54.60;;;;;;5089242;28;20052;-73
2022/06/01 00:18:55;;;;;;;1.77;1.20;;;18.20;55.20;;;;;;5089638;28;20066;-73
2022/06/01 00:21:21;;;;;;;1.20;1.10;;;18.10;58.60;;;;;;5101054;28;20456;-73
2022/06/01 00:23:48;;;;;;;1.80;1.40;;;18.20;59.40;;;;;;5110858;28;20050;-73
2022/06/01 00:26:16;;;;;;;1.30;1.20;;;18.00;59.90;;;;;;5110053;28;20091;-74
2022/06/01 00:28:43;;;;;;;1.85;1.20;;;18.10;54.60;;;;;;5108558;28;20082;-73
2022/06/01 00:31:11;;;;;;;1.40;1.20;;;18.20;54.70;;;;;;5110781;28;20088;-73
2022/06/01 00:33:38;;;;;;;1.42;1.20;;;18.10;59.00;;;;;;5109805;28;20305;-73
2022/06/01 00:36:06;;;;;;;1.40;1.20;;;18.20;59.60;;;;;;5109542;28;20126;-73
2022/06/01 00:38:32;;;;;;;1.40;1.30;;;18.20;60.80;;;;;;5109837;28;20126;-73
2022/06/01 00:40:59;;;;;;;1.70;1.40;;;18.10;54.70;;;;;;5109147;28;20418;-73
2022/06/01 00:43:37;;;;;;;1.33;1.20;;;18.00;59.00;;;;;;5109282;28;20070;-73
2022/06/01 00:46:03;;;;;;;1.42;1.23;;;18.10;54.70;;;;;;5107791;28;20052;-73
2022/06/01 00:48:30;;;;;;;1.40;1.30;;;18.10;59.40;;;;;;5109445;28;20061;-73
2022/06/01 00:50:57;;;;;;;1.33;1.20;;;17.40;59.00;;;;;;5109271;28;20051;-73
2022/06/01 00:53:27;;;;;;;1.55;1.20;;;18.10;59.90;;;;;;5109289;28;20381;-73
2022/06/01 00:55:56;;;;;;;1.63;1.20;;;19.40;60.90;;;;;;5109381;28;20063;-73
2022/06/01 00:58:24;;;;;;;1.50;1.25;;;18.10;59.60;;;;;;5109500;28;20058;-73
2022/06/01 01:00:52;;;;;;;1.77;1.27;;;17.90;60.10;;;;;;5108302;28;20053;-73
2022/06/01 01:03:20;;;;;;;1.52;1.23;;;17.10;59.20;;;;;;5090813;28;20058;-73
2022/06/01 01:05:48;;;;;;;1.48;1.25;;;17.50;58.80;;;;;;5089355;28;20143;-73
2022/06/01 01:08:15;;;;;;;1.35;1.20;;;18.00;54.70;;;;;;5088837;28;20044;-73
2022/06/01 01:10:41;;;;;;;2.10;1.30;;;17.80;59.70;;;;;;5089009;28;20405;-73
2022/06/01 01:13:09;;;;;;;2.10;1.30;;;18.00;59.60;;;;;;5088180;28;20143;-73
2022/06/01 01:15:39;;;;;;;1.55;1.30;;;18.20;60.70;;;;;;5106683;28;20057;-73
2022/06/01 01:18:09;;;;;;;1.33;1.23;;;17.80;59.30;;;;;;5108698;28;20051;-73
2022/06/01 01:20:42;;;;;;;1.50;1.30;;;18.00;54.80;;;;;;5109264;28;20453;-73
2022/06/01 01:23:24;;;;;;;1.90;1.20;;;18.00;59.60;;;;;;5108526;28;20409;-74
2022/06/01 01:25:52;;;;;;;1.50;1.30;;;17.10;59.10;;;;;;5108666;28;20426;-73
2022/06/01 01:28:19;;;;;;;1.35;1.20;;;17.80;59.40;;;;;;5108717;28;20130;-73
2022/06/01 01:30:56;;;;;;;2.55;1.40;;;17.20;59.60;;;;;;5107910;28;20082;-73
2022/06/01 01:33:23;;;;;;;2.45;1.20;;;18.00;54.80;;;;;;5108484;28;20485;-73
2022/06/01 01:35:57;;;;;;;1.33;1.20;;;18.10;60.10;;;;;;5108331;28;20047;-73
2022/06/01 01:38:32;;;;;;;1.70;1.48;;;18.40;60.00;;;;;;5108576;28;20047;-73
2022/06/01 01:41:07;;;;;;;1.55;1.30;;;17.80;59.30;;;;;;5108674;28;20412;-73
2022/06/01 01:43:37;;;;;;;1.40;1.20;;;18.00;59.20;;;;;;5108353;28;20051;-73
2022/06/01 01:46:03;;;;;;;1.75;1.10;;;17.80;59.40;;;;;;5108089;28;20051;-73
2022/06/01 01:48:32;;;;;;;1.42;1.20;;;17.90;59.20;;;;;;5107045;28;20043;-73
2022/06/01 01:50:59;;;;;;;1.52;1.25;;;17.90;54.80;;;;;;5108307;28;20052;-73
2022/06/01 01:53:26;;;;;;;1.30;1.20;;;18.00;59.80;;;;;;5107986;28;20051;-73
2022/06/01 01:55:57;;;;;;;1.30;1.20;;;18.00;60.90;;;;;;5108496;28;20425;-73
2022/06/01 01:58:29;;;;;;;1.50;1.30;;;17.90;59.20;;;;;;5107864;28;20148;-73
2022/06/01 02:00:59;;;;;;;2.10;1.50;;;17.60;59.30;;;;;;5108428;28;20051;-73
2022/06/01 02:03:29;;;;;;;1.40;1.20;;;17.90;54.90;;;;;;5088013;28;20127;-73
2022/06/01 02:06:04;;;;;;;1.60;1.30;;;17.90;54.90;;;;;;5087446;28;20050;-73
2022/06/01 02:08:32;;;;;;;1.95;1.30;;;17.50;60.10;;;;;;5087914;28;20584;-73
2022/06/01 02:13:47;;;;;;;3.72;1.50;;;17.10;59.20;;;;;;5098344;28;20081;-73
2022/06/01 02:16:14;;;;;;;2.00;1.50;;;17.90;55.00;;;;;;5108186;28;20058;-73
2022/06/01 02:18:43;;;;;;;1.70;1.48;;;17.80;54.90;;;;;;5107626;28;20122;-73
2022/06/01 02:21:12;;;;;;;1.60;1.30;;;18.40;59.80;;;;;;5107004;28;20058;-73
2022/06/01 02:23:39;;;;;;;2.22;1.55;;;17.90;59.70;;;;;;5107493;28;20242;-73
2022/06/01 02:26:05;;;;;;;1.50;1.10;;;17.80;55.00;;;;;;5107894;28;20061;-73
2022/06/01 02:28:32;;;;;;;1.38;1.23;;;18.00;60.20;;;;;;5107850;28;20056;-73
2022/06/01 02:31:00;;;;;;;2.03;1.33;;;17.10;58.90;;;;;;5108008;28;20051;-73
2022/06/01 02:33:31;;;;;;;2.10;1.30;;;17.70;59.40;;;;;;5107612;28;20141;-73
2022/06/01 02:35:59;;;;;;;1.48;1.30;;;17.80;59.70;;;;;;5107818;28;20051;-73
2022/06/01 02:38:29;;;;;;;2.22;1.50;;;18.10;60.20;;;;;;5091467;28;20062;-73
2022/06/01 02:40:56;;;;;;;1.92;1.38;;;17.90;60.00;;;;;;5087101;28;20070;-73
2022/06/01 02:43:23;;;;;;;1.63;1.13;;;17.80;55.00;;;;;;5087262;28;20474;-73
2022/06/01 02:45:49;;;;;;;1.45;1.27;;;17.50;59.70;;;;;;5087485;28;20086;-73
2022/06/01 02:48:17;;;;;;;1.40;1.27;;;17.70;60.30;;;;;;5087543;28;20522;-73
2022/06/01 02:50:44;;;;;;;1.65;1.40;;;17.90;59.50;;;;;;5088021;28;20058;-73
2022/06/01 02:53:11;;;;;;;1.52;1.30;;;17.90;60.10;;;;;;5103666;28;20155;-73
2022/06/01 02:55:37;;;;;;;1.60;1.30;;;18.80;60.70;;;;;;5110994;28;20101;-73
2022/06/01 02:58:04;;;;;;;1.50;1.30;;;18.00;60.20;;;;;;5111670;28;20047;-73
2022/06/01 03:00:33;;;;;;;1.90;1.40;;;17.70;60.00;;;;;;5111791;28;20065;-73
2022/06/01 03:03:00;;;;;;;1.40;1.05;;;18.30;59.70;;;;;;5110768;28;20052;-73
2022/06/01 03:05:30;;;;;;;1.30;1.10;;;17.60;60.10;;;;;;5111439;28;20047;-73
2022/06/01 03:07:57;;;;;;;2.83;1.48;;;17.80;59.70;;;;;;5111161;28;20048;-73
2022/06/01 03:10:24;;;;;;;1.55;1.20;;;17.80;54.90;;;;;;5110755;28;20391;-73
2022/06/01 03:12:50;;;;;;;1.70;1.27;;;17.40;59.20;;;;;;5111530;28;20074;-73
2022/06/01 03:15:18;;;;;;;1.73;1.23;;;17.80;55.00;;;;;;5111268;28;20061;-73
2022/06/01 03:17:45;;;;;;;1.55;1.23;;;17.80;55.00;;;;;;5110633;28;20050;-73
2022/06/01 03:20:12;;;;;;;1.80;1.30;;;17.70;59.20;;;;;;5111109;28;20055;-73
2022/06/01 03:22:41;;;;;;;1.30;1.20;;;17.70;54.90;;;;;;5111165;28;20063;-73
2022/06/01 03:25:09;;;;;;;1.52;1.17;;;17.90;59.30;;;;;;5110911;28;20052;-73
2022/06/01 03:27:37;;;;;;;1.77;1.45;;;17.50;60.00;;;;;;5102105;28;20052;-73
2022/06/01 03:30:04;;;;;;;2.33;1.25;;;18.80;61.60;;;;;;5090847;28;20127;-73
2022/06/01 03:32:31;;;;;;;1.60;1.40;;;18.00;60.60;;;;;;5090674;28;20052;-73
2022/06/01 03:34:58;;;;;;;1.60;1.30;;;17.70;55.00;;;;;;5091445;28;20066;-73
2022/06/01 03:37:24;;;;;;;1.77;1.40;;;17.90;59.80;;;;;;5090530;28;20044;-73
2022/06/01 03:39:52;;;;;;;3.25;1.30;;;18.20;60.10;;;;;;5090535;28;20047;-73
2022/06/01 03:42:19;;;;;;;1.67;1.27;;;18.10;60.00;;;;;;5091795;28;20058;-73
2022/06/01 03:47:30;;;;;;;1.48;1.30;;;17.70;55.00;;;;;;5090766;28;20048;-73
2022/06/01 03:49:57;;;;;;;1.35;1.25;;;17.00;59.20;;;;;;5090201;28;20047;-73
2022/06/01 03:52:25;;;;;;;1.40;1.30;;;17.60;59.60;;;;;;5096429;28;20120;-73
2022/06/01 03:54:53;;;;;;;1.55;1.40;;;17.70;59.90;;;;;;5111246;28;20047;-73
2022/06/01 03:57:19;;;;;;;1.52;1.40;;;17.80;59.40;;;;;;5110611;28;20051;-73
2022/06/01 03:59:46;;;;;;;1.52;1.40;;;16.80;59.10;;;;;;5102845;28;20051;-73
2022/06/01 04:02:13;;;;;;;1.35;1.20;;;17.70;55.00;;;;;;5099916;28;20072;-73
2022/06/01 04:04:39;;;;;;;1.42;1.33;;;17.60;59.40;;;;;;5109927;28;20420;-73
2022/06/01 04:07:06;;;;;;;1.70;1.40;;;17.60;59.80;;;;;;5109892;28;20052;-73
2022/06/01 04:09:33;;;;;;;2.25;1.30;;;17.70;55.10;;;;;;5110503;28;20051;-73
2022/06/01 04:12:01;;;;;;;1.58;1.38;;;17.50;59.60;;;;;;5110100;28;20087;-73
2022/06/01 04:14:28;;;;;;;1.40;1.30;;;16.90;59.00;;;;;;5109976;28;20059;-73
2022/06/01 04:16:54;;;;;;;1.52;1.40;;;17.70;55.00;;;;;;5097020;28;20052;-73
2022/06/01 04:19:21;;;;;;;1.60;1.40;;;17.60;60.00;;;;;;5089588;28;20052;-73
2022/06/01 04:21:49;;;;;;;2.15;1.40;;;17.60;59.70;;;;;;5089903;28;20056;-73
2022/06/01 04:24:19;;;;;;;1.52;1.42;;;17.70;55.00;;;;;;5089649;28;20052;-73
2022/06/01 04:26:46;;;;;;;1.73;1.45;;;17.70;55.00;;;;;;5089655;28;20487;-73
2022/06/01 04:29:15;;;;;;;1.60;1.40;;;17.90;59.50;;;;;;5089801;28;20491;-73
2022/06/01 04:31:41;;;;;;;1.70;1.40;;;17.90;59.60;;;;;;5089402;28;20062;-73
2022/06/01 04:34:08;;;;;;;2.50;1.50;;;17.80;61.20;;;;;;5109290;28;20126;-73
2022/06/01 04:36:35;;;;;;;2.35;1.70;;;17.80;59.90;;;;;;5111101;28;20051;-73
2022/06/01 04:39:02;;;;;;;1.58;1.33;;;17.90;59.80;;;;;;5109512;28;20626;-73
2022/06/01 04:41:28;;;;;;;1.85;1.33;;;17.70;59.70;;;;;;5109516;28;20058;-73
2022/06/01 04:43:55;;;;;;;1.95;1.60;;;17.80;59.40;;;;;;5110499;28;20044;-73
2022/06/01 04:46:24;;;;;;;1.23;1.13;;;17.30;59.50;;;;;;5109718;28;20062;-73
2022/06/01 04:48:51;;;;;;;1.75;1.50;;;17.60;59.70;;;;;;5109004;28;20406;-73
2022/06/01 04:51:18;;;;;;;1.55;1.30;;;17.90;60.00;;;;;;5109418;28;20053;-73
2022/06/01 04:53:44;;;;;;;1.75;1.40;;;17.70;54.90;;;;;;5109195;28;20059;-73
2022/06/01 04:56:11;;;;;;;2.33;1.48;;;17.80;59.80;;;;;;5110329;28;20131;-73
2022/06/01 04:58:38;;;;;;;2.00;1.60;;;17.60;60.30;;;;;;5109214;28;20055;-73
2022/06/01 05:01:05;;;;;;;2.10;1.70;;;17.80;59.40;;;;;;5108919;28;20062;-73
2022/06/01 05:03:33;;;;;;;1.65;1.40;;;17.50;59.40;;;;;;5108838;28;20048;-73
2022/06/01 05:06:00;;;;;;;2.85;1.58;;;17.90;60.30;;;;;;5098770;28;20249;-73
2022/06/01 05:08:26;;;;;;;1.60;1.50;;;17.90;54.90;;;;;;5088425;28;20055;-73
2022/06/01 05:10:53;;;;;;;2.15;1.50;;;18.00;59.40;;;;;;5088688;28;20082;-73
2022/06/01 05:13:21;;;;;;;1.70;1.50;;;17.80;60.10;;;;;;5088428;28;20094;-73
2022/06/01 05:15:49;;;;;;;1.75;1.60;;;17.90;54.80;;;;;;5088494;28;20055;-73
2022/06/01 05:18:15;;;;;;;2.00;1.70;;;18.40;60.30;;;;;;5088219;28;20044;-73
2022/06/01 05:20:43;;;;;;;1.70;1.40;;;18.00;59.90;;;;;;5088546;28;20131;-73
2022/06/01 05:23:10;;;;;;;2.05;1.40;;;17.90;59.40;;;;;;5089516;28;20055;-73
2022/06/01 05:25:37;;;;;;;1.55;1.40;;;17.90;54.80;;;;;;5089580;28;20051;-73
2022/06/01 05:28:04;;;;;;;1.67;1.50;;;16.70;59.60;;;;;;5088716;28;20051;-73
2022/06/01 05:30:30;;;;;;;1.42;1.30;;;18.20;60.00;;;;;;5088507;28;20058;-72
2022/06/01 05:32:57;;;;;;;1.65;1.42;;;18.70;60.30;;;;;;5088638;28;20051;-71
2022/06/01 05:35:24;;;;;;;1.80;1.60;;;17.60;59.30;;;;;;5088354;28;20135;-72
2022/06/01 05:37:52;;;;;;;1.92;1.42;;;17.70;59.70;;;;;;5088040;28;20062;-72
2022/06/01 05:40:19;;;;;;;1.70;1.55;;;17.70;59.20;;;;;;5090708;28;20044;-72
2022/06/01 05:42:46;;;;;;;2.75;1.58;;;17.90;54.80;;;;;;5088432;28;20060;-72
2022/06/01 05:45:13;;;;;;;4.05;1.60;;;18.70;60.20;;;;;;5105093;28;20054;-72
2022/06/01 05:47:39;;;;;;;1.60;1.40;;;18.60;59.60;;;;;;5090079;27;20052;-72
2022/06/01 05:50:07;;;;;;;1.70;1.60;;;18.00;60.40;;;;;;5088383;28;20060;-72
2022/06/01 05:52:38;;;;;;;3.33;1.60;;;18.00;59.80;;;;;;5099208;28;20062;-72
2022/06/01 05:55:08;;;;;;;2.05;1.85;;;18.00;55.00;;;;;;5108095;28;20047;-72
2022/06/01 05:57:34;;;;;;;2.00;1.60;;;18.30;59.30;;;;;;5108151;28;20421;-72
2022/06/01 06:00:02;;;;;;;2.58;1.75;;;17.90;59.30;;;;;;5108271;28;20055;-72
2022/06/01 06:02:28;;;;;;;2.67;1.88;;;17.30;58.90;;;;;;5107334;28;20051;-72
2022/06/01 06:04:55;;;;;;;3.05;1.90;;;18.00;59.10;;;;;;5108608;28;20047;-72
2022/06/01 06:07:22;;;;;;;5.97;1.95;;;18.30;60.20;;;;;;5108293;28;20130;-72
2022/06/01 06:09:48;;;;;;;2.45;1.70;;;18.10;59.90;;;;;;5108353;28;20641;-72
2022/06/01 06:12:17;;;;;;;1.60;1.48;;;18.20;54.70;;;;;;5108236;28;20051;-72
2022/06/01 06:14:43;;;;;;;3.15;1.52;;;18.20;54.60;;;;;;5107761;28;20656;-73
2022/06/01 06:17:12;;;;;;;2.63;1.80;;;18.30;58.60;;;;;;5109228;28;20466;-72
2022/06/01 06:19:39;;;;;;;2.50;1.80;;;18.20;54.60;;;;;;5107566;28;20063;-72
2022/06/01 06:22:06;;;;;;;3.30;1.70;;;18.20;59.40;;;;;;5106129;28;20055;-72
2022/06/01 06:24:33;;;;;;;2.17;1.80;;;18.40;58.60;;;;;;5107694;28;20059;-72
2022/06/01 06:27:00;;;;;;;1.77;1.60;;;18.30;59.70;;;;;;5090422;28;20498;-71
2022/06/01 06:29:28;;;;;;;2.53;1.70;;;18.50;60.10;;;;;;5108215;28;20245;-72
2022/06/01 06:31:55;;;;;;;2.05;1.70;;;18.30;54.40;;;;;;5099968;28;20656;-72
2022/06/01 06:34:21;;;;;;;1.55;1.40;;;18.20;57.50;;;;;;5097593;28;20039;-72
2022/06/01 06:36:48;;;;;;;1.80;1.40;;;18.30;54.40;;;;;;5097869;28;20048;-71
2022/06/01 06:39:15;;;;;;;1.48;1.38;;;18.60;60.80;;;;;;5095713;28;20043;-72
2022/06/01 06:41:42;;;;;;;1.60;1.48;;;18.40;54.40;;;;;;5099051;28;20054;-72
2022/06/01 06:44:08;;;;;;;1.88;1.50;;;18.40;54.40;;;;;;5098022;28;20047;-72
2022/06/01 06:46:36;;;;;;;2.20;1.50;;;18.50;59.60;;;;;;5101366;28;20047;-72
2022/06/01 06:49:03;;;;;;;2.00;1.65;;;18.20;59.90;;;;;;5107605;28;20057;-72
2022/06/01 06:51:30;;;;;;;2.13;1.50;;;18.30;59.60;;;;;;5107715;28;20054;-72
2022/06/01 06:53:56;;;;;;;3.75;2.63;;;18.50;58.50;;;;;;5106526;28;20058;-72
2022/06/01 06:56:23;;;;;;;4.57;2.42;;;18.20;58.80;;;;;;5107844;28;20062;-72
2022/06/01 06:58:50;;;;;;;3.03;1.77;;;18.50;54.40;;;;;;5107248;28;20058;-73
2022/06/01 07:01:18;;;;;;;3.33;2.30;;;18.30;58.90;;;;;;5106349;28;20059;-72
2022/06/01 07:03:46;;;;;;;4.35;2.15;;;18.80;59.80;;;;;;5106336;28;20124;-73
2022/06/01 07:06:12;;;;;;;3.17;1.70;;;18.50;54.30;;;;;;5107711;28;20055;-73
2022/06/01 07:08:41;;;;;;;2.10;1.70;;;18.50;58.70;;;;;;5107662;28;20471;-72
2022/06/01 07:11:08;;;;;;;2.35;1.77;;;18.30;58.30;;;;;;5106538;28;20048;-72
2022/06/01 07:13:35;;;;;;;2.22;1.50;;;18.60;54.20;;;;;;5107549;28;20051;-72
2022/06/01 07:16:06;;;;;;;2.33;1.75;;;18.60;58.60;;;;;;5107637;28;20138;-72
2022/06/01 07:18:33;;;;;;;1.98;1.70;;;18.60;54.00;;;;;;5107209;28;20047;-71
2022/06/01 07:21:01;;;;;;;2.17;1.60;;;18.80;58.70;;;;;;5107767;28;20415;-72
2022/06/01 07:23:28;;;;;;;2.17;1.58;;;18.70;54.00;;;;;;5107135;28;20051;-73
2022/06/01 07:25:54;;;;;;;1.70;1.45;;;18.70;54.00;;;;;;5107454;28;20126;-72
2022/06/01 07:28:23;;;;;;;1.90;1.50;;;18.70;54.00;;;;;;5100489;28;20055;-72
2022/06/01 07:30:50;;;;;;;1.90;1.50;;;18.70;54.00;;;;;;5107185;28;20056;-72
2022/06/01 07:33:17;;;;;;;1.92;1.50;;;18.70;53.90;;;;;;5107077;28;20056;-72
2022/06/01 07:35:44;;;;;;;1.73;1.60;;;18.00;58.00;;;;;;5106836;28;20055;-72
2022/06/01 07:43:41;;;;;;;1.70;1.50;;;18.80;58.70;;;;;;5111168;28;20377;-72
2022/06/01 07:46:08;;;;;;;3.50;1.40;;;18.00;58.70;;;;;;5110373;28;20052;-74
2022/06/01 07:48:34;;;;;;;2.25;1.42;;;18.80;58.60;;;;;;5110673;28;20044;-73
2022/06/01 07:51:01;;;;;;;1.40;1.30;;;18.90;59.60;;;;;;5111632;28;20452;-73
2022/06/01 07:53:29;;;;;;;1.30;1.20;;;18.80;58.60;;;;;;5093012;28;20058;-73
2022/06/01 07:55:56;;;;;;;1.23;1.13;;;18.80;53.70;;;;;;5089858;28;20051;-74
2022/06/01 07:58:22;;;;;;;1.90;1.48;;;18.60;57.90;;;;;;5098990;28;20086;-73
2022/06/01 08:00:49;;;;;;;1.20;1.10;;;18.80;58.30;;;;;;5110652;28;20117;-73
2022/06/01 08:03:17;;;;;;;1.45;1.20;;;19.00;59.00;;;;;;5109634;28;20436;-73
2022/06/01 08:05:44;;;;;;;1.45;1.20;;;19.10;58.90;;;;;;5110112;28;20047;-73
2022/06/01 08:08:10;;;;;;;1.52;1.27;;;18.20;58.60;;;;;;5110715;28;20051;-73
2022/06/01 08:10:39;;;;;;;2.47;1.10;;;19.00;53.70;;;;;;5109851;28;20082;-72
2022/06/01 08:13:09;;;;;;;1.30;1.20;;;20.20;60.90;;;;;;5109986;28;20052;-72
2022/06/01 08:15:40;;;;;;;1.60;1.35;;;19.20;59.00;;;;;;5109220;28;20409;-71
2022/06/01 08:18:06;;;;;;;1.25;1.15;;;19.00;53.50;;;;;;5107480;28;20394;-72
2022/06/01 08:20:33;;;;;;;2.72;1.20;;;18.90;57.90;;;;;;5101913;28;20438;-70
2022/06/01 08:23:00;;;;;;;1.30;1.20;;;18.20;58.40;;;;;;5098433;28;20075;-71
2022/06/01 08:25:27;;;;;;;1.58;1.23;;;19.10;53.70;;;;;;5089402;28;20059;-71
2022/06/01 08:27:55;;;;;;;1.52;1.20;;;19.10;59.20;;;;;;5090530;28;20068;-71
2022/06/01 08:30:24;;;;;;;1.55;1.40;;;19.20;59.10;;;;;;5091024;28;20066;-70
2022/06/01 08:32:51;;;;;;;1.73;1.40;;;18.60;57.90;;;;;;5102685;28;20486;-72
2022/06/01 08:35:19;;;;;;;2.42;1.50;;;19.20;53.80;;;;;;5092298;28;20056;-70
2022/06/01 08:37:46;;;;;;;1.70;1.30;;;19.30;58.90;;;;;;5090174;28;20512;-70
2022/06/01 08:40:13;;;;;;;1.50;1.30;;;19.20;53.70;;;;;;5089272;28;20052;-71
2022/06/01 08:42:40;;;;;;;1.80;1.30;;;19.20;53.60;;;;;;5089534;28;20058;-70
2022/06/01 08:45:09;;;;;;;1.85;1.42;;;19.20;58.70;;;;;;5088963;28;20052;-70
2022/06/01 08:47:37;;;;;;;2.13;1.25;;;19.20;59.40;;;;;;5093216;28;20414;-71
2022/06/01 08:50:06;;;;;;;2.78;1.50;;;19.30;59.20;;;;;;5088151;28;20336;-71
2022/06/01 08:52:33;;;;;;;3.22;1.38;;;19.30;53.90;;;;;;5096827;28;20521;-70
2022/06/01 08:55:00;;;;;;;2.95;1.67;;;19.30;53.80;;;;;;5108766;28;20048;-72
2022/06/01 08:57:28;;;;;;;3.70;1.80;;;19.30;53.80;;;;;;5109113;28;20051;-72
2022/06/01 09:00:00;;;;;;;6.00;1.70;;;19.30;58.50;;;;;;5097806;28;20102;-71
2022/06/01 09:02:39;;;;;;;2.22;1.50;;;19.40;59.40;;;;;;5097854;28;20585;-71
2022/06/01 09:05:09;;;;;;;3.47;1.73;;;18.80;59.70;;;;;;5101644;28;20052;-71
2022/06/01 09:07:38;;;;;;;5.63;1.77;;;18.50;58.20;;;;;;5096330;28;20508;-71
2022/06/01 09:10:47;;;;;;;5.60;1.73;;;19.40;54.00;;;;;;5097711;28;20048;-71
2022/06/01 09:13:19;;;;;;;1.77;1.50;;;19.20;59.40;;;;;;5089611;28;20052;-71
2022/06/01 09:15:48;;;;;;;1.95;1.65;;;19.40;59.80;;;;;;5089502;28;20052;-70
2022/06/01 09:18:17;;;;;;;1.67;1.50;;;19.40;54.10;;;;;;5088256;28;20054;-71
2022/06/01 09:23:28;;;;;;;2.47;1.55;;;19.40;59.30;;;;;;5093970;28;20453;-71
2022/06/01 09:25:56;;;;;;;1.75;1.52;;;19.30;54.10;;;;;;5087388;28;20051;-72
2022/06/01 09:28:23;;;;;;;2.10;1.52;;;19.30;54.00;;;;;;5096164;28;20051;-71
2022/06/01 09:30:55;;;;;;;2.30;1.50;;;19.10;59.00;;;;;;5098123;28;20441;-71
2022/06/01 09:33:24;;;;;;;2.25;1.50;;;20.10;58.70;;;;;;5092443;28;20072;-71
2022/06/01 09:36:15;;;;;;;4.07;1.63;;;19.20;54.00;;;;;;5100560;28;20056;-71
2022/06/01 09:38:43;;;;;;;1.70;1.58;;;19.20;59.90;;;;;;5104826;28;20051;-71
2022/06/01 09:41:12;;;;;;;3.72;1.40;;;19.20;54.10;;;;;;5097292;28;20075;-71
2022/06/01 09:43:39;;;;;;;2.38;1.52;;;19.30;59.60;;;;;;5100307;28;20047;-71
2022/06/01 09:46:06;;;;;;;2.05;1.42;;;19.20;58.80;;;;;;5087642;28;20058;-71
2022/06/01 09:48:36;;;;;;;2.25;1.50;;;20.10;59.50;;;;;;5089784;28;20052;-71
2022/06/01 09:51:07;;;;;;;2.13;1.30;;;19.10;58.70;;;;;;5088407;28;20048;-72
2022/06/01 09:53:37;;;;;;;3.60;1.25;;;19.20;58.70;;;;;;5104145;28;20063;-71
2022/06/01 09:56:04;;;;;;;1.75;1.23;;;19.20;54.20;;;;;;5103612;28;20062;-71
2022/06/01 10:06:54;;;;;;;1.92;1.13;;;19.90;59.60;;;;;;5108481;28;20063;-71
2022/06/01 10:09:22;;;;;;;3.13;1.40;;;19.30;59.40;;;;;;5109313;28;20056;-71
2022/06/01 10:11:51;;;;;;;1.88;1.20;;;18.70;58.70;;;;;;5094750;28;20532;-71
2022/06/01 10:14:20;;;;;;;2.70;1.20;;;19.60;60.30;;;;;;5098406;28;20498;-71
2022/06/01 10:17:07;;;;;;;2.17;1.20;;;19.60;54.70;;;;;;5107760;28;20720;-70
2022/06/01 10:19:38;;;;;;;2.78;1.10;;;19.60;54.40;;;;;;5107934;28;20048;-72
2022/06/01 10:22:08;;;;;;;1.05;0.95;;;19.70;58.50;;;;;;5109420;28;20147;-71
2022/06/01 10:24:36;;;;;;;2.22;1.13;;;19.90;58.10;;;;;;5108916;28;20055;-71
2022/06/01 10:27:04;;;;;;;2.05;1.05;;;19.70;54.10;;;;;;5104815;28;20059;-71
2022/06/01 10:29:32;;;;;;;2.83;1.10;;;18.60;58.30;;;;;;5089028;28;20051;-71
2022/06/01 10:32:01;;;;;;;1.73;1.10;;;19.70;58.20;;;;;;5088011;28;20406;-71
2022/06/01 10:34:32;;;;;;;1.20;0.90;;;19.50;57.30;;;;;;5088173;28;20424;-71
2022/06/01 10:37:01;;;;;;;2.67;1.20;;;19.60;58.50;;;;;;5087700;28;20060;-71
2022/06/01 10:39:31;;;;;;;2.08;0.90;;;19.10;58.10;;;;;;5092260;28;20044;-71
2022/06/01 10:42:04;;;;;;;1.15;1.00;;;18.80;58.80;;;;;;5107720;28;20417;-71
2022/06/01 10:44:33;;;;;;;1.75;1.02;;;20.20;57.70;;;;;;5106806;28;20055;-71
2022/06/01 10:47:02;;;;;;;3.25;1.20;;;19.80;59.20;;;;;;5107953;28;20051;-71
2022/06/01 10:49:34;;;;;;;1.50;1.10;;;20.00;54.10;;;;;;5101460;28;20044;-71
2022/06/01 10:52:08;;;;;;;1.52;0.90;;;20.00;54.00;;;;;;5096064;28;20058;-71
2022/06/01 10:54:37;;;;;;;1.23;1.00;;;20.10;58.00;;;;;;5097250;28;20051;-71
2022/06/01 10:57:05;;;;;;;1.73;1.00;;;20.00;54.00;;;;;;5108765;28;20047;-71
2022/06/01 10:59:31;;;;;;;1.42;1.00;;;20.00;53.90;;;;;;5108643;28;20048;-71
2022/06/01 11:02:03;;;;;;;2.22;0.98;;;20.00;58.40;;;;;;5106735;28;20135;-71
2022/06/01 11:04:50;;;;;;;2.85;1.00;;;20.20;57.40;;;;;;5107502;28;20055;-71
2022/06/01 11:07:43;;;;;;;1.63;0.90;;;20.10;58.20;;;;;;5107680;28;20047;-71
2022/06/01 11:10:13;;;;;;;2.83;1.20;;;20.10;53.90;;;;;;5109181;28;20068;-70
2022/06/01 11:12:46;;;;;;;2.25;0.90;;;20.10;59.10;;;;;;5109014;28;20051;-72
2022/06/01 11:15:18;;;;;;;1.38;1.10;;;20.10;53.90;;;;;;5092082;28;20044;-71
2022/06/01 11:17:46;;;;;;;2.03;1.00;;;20.10;53.80;;;;;;5090539;28;20056;-71
2022/06/01 11:20:27;;;;;;;1.48;1.00;;;20.00;59.50;;;;;;5098939;28;20119;-71
2022/06/01 11:23:03;;;;;;;2.30;1.00;;;20.10;59.20;;;;;;5111265;28;20705;-72
2022/06/01 11:25:32;;;;;;;1.42;0.98;;;20.20;58.40;;;;;;5111210;28;20059;-70
2022/06/01 11:28:15;;;;;;;1.30;0.90;;;20.20;53.90;;;;;;5111263;28;20690;-71
2022/06/01 11:30:48;;;;;;;2.65;1.15;;;20.20;53.80;;;;;;5099813;28;20387;-71
2022/06/01 11:33:27;;;;;;;3.25;1.17;;;20.20;53.80;;;;;;5090777;28;20062;-72
2022/06/01 11:35:57;;;;;;;2.15;1.33;;;20.30;58.20;;;;;;5099772;28;20051;-71
2022/06/01 11:38:27;;;;;;;2.10;1.15;;;20.50;58.90;;;;;;5111500;28;20486;-73
2022/06/01 11:40:56;;;;;;;2.42;1.20;;;20.30;54.20;;;;;;5110816;28;20043;-72
2022/06/01 11:43:34;;;;;;;4.40;1.10;;;20.30;54.30;;;;;;5110913;28;20051;-72
2022/06/01 11:46:02;;;;;;;2.45;1.20;;;20.30;54.40;;;;;;5110157;28;20056;-72
2022/06/01 11:48:31;;;;;;;3.92;1.45;;;20.30;60.10;;;;;;5110721;28;20060;-71
2022/06/01 11:51:06;;;;;;;3.83;1.40;;;20.10;58.20;;;;;;5111192;28;20474;-71
2022/06/01 11:53:35;;;;;;;3.65;1.30;;;20.30;59.30;;;;;;5108125;28;20059;-71
2022/06/01 11:56:17;;;;;;;3.22;1.27;;;20.20;54.60;;;;;;5110119;28;20508;-71
2022/06/01 11:58:47;;;;;;;3.50;1.20;;;20.00;59.50;;;;;;5110965;28;20047;-72
2022/06/01 12:01:15;;;;;;;4.88;1.45;;;20.10;54.70;;;;;;5110563;28;20630;-71
2022/06/01 12:03:55;;;;;;;3.35;1.50;;;19.90;58.90;;;;;;5110342;28;20081;-71
2022/06/01 12:06:43;;;;;;;1.98;1.20;;;20.00;55.10;;;;;;5110875;28;20056;-71
2022/06/01 12:09:17;;;;;;;2.90;1.42;;;20.60;59.80;;;;;;5111588;28;20126;-71
2022/06/01 12:11:47;;;;;;;4.20;1.30;;;19.90;59.70;;;;;;5110795;28;20054;-71
2022/06/01 12:14:32;;;;;;;2.85;1.23;;;20.10;59.00;;;;;;5110105;28;20071;-69
2022/06/01 12:17:33;;;;;;;4.43;1.30;;;19.80;60.30;;;;;;5110426;28;20138;-72
2022/06/01 12:20:36;;;;;;;2.10;1.50;;;19.80;55.30;;;;;;5031491;28;20120;-73
2022/06/01 12:29:40;;;;;;;2.47;1.20;;;19.70;55.80;;;;;;5130605;27;20093;-72
2022/06/01 12:32:09;;;;;;;3.20;1.10;;;19.30;59.60;;;;;;5108930;27;20058;-72
2022/06/01 12:34:39;;;;;;;5.43;1.20;;;19.30;58.90;;;;;;5089505;28;20052;-72
2022/06/01 12:37:08;;;;;;;2.45;1.15;;;19.50;60.00;;;;;;5089537;28;20063;-72
2022/06/01 12:39:36;;;;;;;2.72;1.10;;;19.60;55.90;;;;;;5089528;28;20084;-72
2022/06/01 12:42:12;;;;;;;1.83;1.02;;;19.50;55.90;;;;;;5091735;28;20048;-72
2022/06/01 12:44:39;;;;;;;3.22;1.35;;;19.60;59.50;;;;;;5088993;28;20066;-72
2022/06/01 12:47:06;;;;;;;3.38;1.15;;;19.80;60.30;;;;;;5089701;28;20514;-72
2022/06/01 12:49:36;;;;;;;1.95;1.30;;;19.50;60.80;;;;;;5089273;28;20059;-72
2022/06/01 12:52:04;;;;;;;1.75;1.10;;;19.40;61.30;;;;;;5092563;28;20043;-72
2022/06/01 12:54:32;;;;;;;1.80;1.10;;;19.50;59.50;;;;;;5109169;28;20086;-72
2022/06/01 12:56:59;;;;;;;4.22;1.20;;;19.50;61.30;;;;;;5109615;28;20130;-72
2022/06/01 12:59:30;;;;;;;3.15;1.20;;;19.40;56.00;;;;;;5108928;28;20150;-72
2022/06/01 13:01:59;;;;;;;1.77;1.10;;;19.60;60.50;;;;;;5108503;28;20049;-72
2022/06/01 13:04:25;;;;;;;2.03;1.10;;;19.40;59.60;;;;;;5109140;28;20055;-72
2022/06/01 13:06:52;;;;;;;3.13;1.10;;;18.60;60.00;;;;;;5109052;28;20051;-72
2022/06/01 13:09:20;;;;;;;2.08;1.10;;;19.40;56.20;;;;;;5109058;28;20058;-72
2022/06/01 13:11:56;;;;;;;2.15;1.00;;;20.00;61.20;;;;;;5109026;28;20083;-72
2022/06/01 13:14:23;;;;;;;2.45;1.00;;;19.50;56.40;;;;;;5109385;28;20052;-72
2022/06/01 13:16:51;;;;;;;1.45;1.10;;;19.70;61.50;;;;;;5109013;28;20716;-72
2022/06/01 13:19:20;;;;;;;2.08;1.02;;;19.90;61.10;;;;;;5110065;28;20046;-72
2022/06/01 13:21:48;;;;;;;3.42;1.10;;;19.60;56.50;;;;;;5108649;28;20457;-72
2022/06/01 13:24:15;;;;;;;1.70;1.10;;;19.80;61.10;;;;;;5110018;28;20130;-72
2022/06/01 13:26:44;;;;;;;1.38;1.00;;;19.80;60.40;;;;;;5110206;28;20051;-72